Detalii statie GENERAL AGRO [00001CEA]

Toti senzorii

Date Temperatura solului [C]Precipitatii [mm]Voltaj baterie [mV]HC Air temperature [C]HC Relative humidity [%]Punctul de roua [C]
medieminmaxsumaultimamedieminmaxmediemediemin
2018-06-20 10:00:00 23.9 23.7 24.2 0 7128 29.66 29.08 30.04 0 0 0
2018-06-20 10:30:00 24.5 24.4 24.8 0 7128 30.43 30.02 30.7 0 0 0
2018-06-20 11:00:00 25.2 24.9 25.5 0 7118 31.21 30.92 31.56 0 0 0
2018-06-20 11:30:00 25.8 25.6 26.3 0 7128 31.59 31.25 31.98 0 0 0
2018-06-20 12:00:00 26.4 26.3 26.7 0 7098 31.97 31.06 32.41 0 0 0
2018-06-20 12:30:00 26.7 26.6 26.9 0 7118 31.74 30.5 32.44 0 0 0
2018-06-20 13:00:00 27.1 27 27.3 0 7098 32.58 32.17 33.22 0 0 0
2018-06-20 13:30:00 27.5 27.4 27.8 0 7070 33.3 32.92 33.62 0 0 0
2018-06-20 14:00:00 27.9 27.7 28.2 0 7030 33.23 32.6 33.5 0 0 0
2018-06-20 14:30:00 28.3 28.2 28.5 0 6962 33.66 33.39 33.85 0 0 0
2018-06-20 15:00:00 28.6 28.5 28.8 0 6952 33.23 33.03 33.42 0 0 0
2018-06-20 15:30:00 28.8 28.6 29.1 0 6922 33.03 32.78 33.3 0 0 0
2018-06-20 16:00:00 29 28.9 29.2 0 6932 32.02 31.63 32.41 0 0 0
2018-06-20 16:30:00 28.9 28.9 29.2 0 6914 31.18 30.11 32.58 0 0 0
2018-06-20 17:00:00 29 29 29.2 0 6922 32.15 32 32.32 0 0 0
2018-06-20 17:30:00 29.1 29.1 29.2 0 6904 32 31.57 32.48 0 0 0
2018-06-20 18:00:00 28.9 28.9 29 0 6884 31.22 30.96 31.47 0 0 0
2018-06-20 18:30:00 28.5 28.5 28.7 0 6884 29.97 27.66 30.89 0 0 0
2018-06-20 19:00:00 28.1 27.9 28.3 0 6884 25.16 24.5 27.31 0 0 0
2018-06-20 19:30:00 27.7 27.5 27.9 0 6864 25.11 24.78 25.55 0 0 0
2018-06-20 20:00:00 27.3 27.1 27.5 0 6874 25.02 24.68 25.46 0 0 0
2018-06-20 20:30:00 26.8 26.6 27 0 6854 23.5 23.3 23.72 0 0 0
2018-06-20 21:00:00 26.4 26.3 26.6 0 6864 23.49 23.17 23.84 0 0 0
2018-06-20 21:30:00 26 25.9 26.2 0 6854 22.91 22.73 23.14 0 0 0
2018-06-20 22:00:00 25.7 25.7 25.9 0 6864 23.04 22.88 23.21 0 0 0
2018-06-20 22:30:00 25.3 25.2 25.6 0 6864 23.1 22.75 23.24 0 0 0
2018-06-20 23:00:00 25.2 25 25.4 0 6864 22.53 22.45 22.62 0 0 0
2018-06-20 23:30:00 25 24.9 25.3 0 6844 22.17 21.94 22.37 0 0 0
2018-06-21 00:00:00 24.6 24.4 24.8 0 6864 22.03 21.92 22.38 0 0 0
2018-06-21 00:30:00 24.4 24.4 24.6 0 6844 22.51 22.43 22.58 0 0 0
2018-06-21 01:00:00 24.2 24.1 24.4 0 6844 22.26 22.12 22.36 0 0 0
2018-06-21 01:30:00 23.9 23.8 24.1 0 6834 21.89 21.76 22.06 0 0 0
2018-06-21 02:00:00 23.7 23.7 23.9 0 6844 21.75 21.56 21.92 0 0 0
2018-06-21 02:30:00 23.7 23.7 23.8 0 6844 21.52 21.43 21.6 0 0 0
2018-06-21 03:00:00 23.5 23.5 23.7 0 6844 21.46 21.22 21.65 0 0 0
2018-06-21 03:30:00 23.2 23.1 23.4 0 6834 21.11 21.04 21.17 0 0 0
2018-06-21 04:00:00 23.1 23 23.2 0 6844 20.81 20.64 20.97 0 0 0
2018-06-21 04:30:00 22.9 22.9 23 0 6834 20.25 20.1 20.42 0 0 0
2018-06-21 05:00:00 22.9 22.8 23 0 6834 20.18 20.07 20.28 0 0 0
2018-06-21 05:30:00 22.7 22.6 22.8 0 6834 20.55 20.36 20.69 0 0 0
2018-06-21 06:00:00 22.8 22.6 22.9 0 6854 21.01 20.68 21.52 0 0 0
2018-06-21 06:30:00 22.7 22.6 22.8 0 6864 21.87 21.62 22.15 0 0 0
2018-06-21 07:00:00 22.9 22.8 23 0 6884 23.21 22.32 24.18 0 0 0
2018-06-21 07:30:00 23 23 23.2 0 6904 23.97 23.73 24.23 0 0 0
2018-06-21 08:00:00 23.3 23.2 23.5 0 6962 25.04 24.22 25.92 0 0 0
2018-06-21 08:30:00 23.7 23.5 24 0 7050 26.95 25.91 27.3 0 0 0
2018-06-21 09:00:00 24.2 24 24.4 0 7108 27.77 27.05 28.19 0 0 0
2018-06-21 09:30:00 24.7 24.5 24.9 0 7108 29 28.34 29.82 0 0 0